Terminal Aerodrome Forecast
Issued by NWS

Home | Current Version | Previous Version | Text Only | Print | Product List | Glossary On
Versions: 1 2 3 4 5 6 7 8 9 10 11 12 13 14 15 16 17
011
FTUS46 KMTR 250520
TAFSJC
TAF
KSJC 250520Z 2506/2606 30008KT P6SM SCT020
     FM250700 30003KT P6SM BKN015
     FM251000 VRB03KT P6SM OVC012
     FM251700 32012KT P6SM FEW025
     FM260300 30008KT P6SM FEW020=

USA.gov is the U.S. government's official web portal to all federal, state and local government web resources and services.